sensor_id;sensor_type;location;lat;lon;timestamp;P1;durP1;ratioP1;P2;durP2;ratioP2
59649;SDS011;46162;57.568;25.814;2022-12-08T00:00:13;6.82;;;3.28;;
59649;SDS011;46162;57.568;25.814;2022-12-08T00:02:43;6.45;;;3.38;;
59649;SDS011;46162;57.568;25.814;2022-12-08T00:05:12;6.70;;;3.13;;
59649;SDS011;46162;57.568;25.814;2022-12-08T00:07:59;6.30;;;3.05;;
59649;SDS011;46162;57.568;25.814;2022-12-08T00:10:54;5.25;;;2.92;;
59649;SDS011;46162;57.568;25.814;2022-12-08T00:13:23;5.93;;;2.53;;
59649;SDS011;46162;57.568;25.814;2022-12-08T00:15:52;6.07;;;3.15;;
59649;SDS011;46162;57.568;25.814;2022-12-08T00:18:26;5.40;;;3.00;;
59649;SDS011;46162;57.568;25.814;2022-12-08T00:20:55;6.57;;;3.53;;
59649;SDS011;46162;57.568;25.814;2022-12-08T00:23:26;6.30;;;3.45;;
59649;SDS011;46162;57.568;25.814;2022-12-08T00:25:55;7.95;;;3.78;;
59649;SDS011;46162;57.568;25.814;2022-12-08T00:28:23;8.60;;;3.35;;
59649;SDS011;46162;57.568;25.814;2022-12-08T00:30:52;5.95;;;3.00;;
59649;SDS011;46162;57.568;25.814;2022-12-08T00:33:21;6.97;;;3.35;;
59649;SDS011;46162;57.568;25.814;2022-12-08T00:35:50;6.70;;;2.88;;
59649;SDS011;46162;57.568;25.814;2022-12-08T00:38:19;5.95;;;3.03;;
59649;SDS011;46162;57.568;25.814;2022-12-08T00:40:49;5.15;;;2.65;;
59649;SDS011;46162;57.568;25.814;2022-12-08T00:43:18;6.57;;;3.63;;
59649;SDS011;46162;57.568;25.814;2022-12-08T00:45:47;4.88;;;3.10;;
59649;SDS011;46162;57.568;25.814;2022-12-08T00:48:15;5.45;;;2.83;;
59649;SDS011;46162;57.568;25.814;2022-12-08T00:50:45;7.43;;;3.55;;
59649;SDS011;46162;57.568;25.814;2022-12-08T00:53:13;6.38;;;2.95;;
59649;SDS011;46162;57.568;25.814;2022-12-08T00:55:42;8.25;;;3.47;;
59649;SDS011;46162;57.568;25.814;2022-12-08T00:58:12;4.72;;;2.75;;
59649;SDS011;46162;57.568;25.814;2022-12-08T01:00:41;5.17;;;2.93;;
59649;SDS011;46162;57.568;25.814;2022-12-08T01:03:11;5.82;;;2.83;;
59649;SDS011;46162;57.568;25.814;2022-12-08T01:05:40;6.93;;;3.58;;
59649;SDS011;46162;57.568;25.814;2022-12-08T01:08:10;5.47;;;2.47;;
59649;SDS011;46162;57.568;25.814;2022-12-08T01:10:39;5.68;;;2.90;;
59649;SDS011;46162;57.568;25.814;2022-12-08T01:13:07;5.07;;;2.60;;
59649;SDS011;46162;57.568;25.814;2022-12-08T01:15:38;5.43;;;2.95;;
59649;SDS011;46162;57.568;25.814;2022-12-08T01:18:07;5.40;;;3.13;;
59649;SDS011;46162;57.568;25.814;2022-12-08T01:20:36;5.68;;;2.85;;
59649;SDS011;46162;57.568;25.814;2022-12-08T01:23:04;5.18;;;2.60;;
59649;SDS011;46162;57.568;25.814;2022-12-08T01:25:33;5.22;;;2.85;;
59649;SDS011;46162;57.568;25.814;2022-12-08T01:28:02;4.65;;;2.58;;
59649;SDS011;46162;57.568;25.814;2022-12-08T01:30:31;6.82;;;3.42;;
59649;SDS011;46162;57.568;25.814;2022-12-08T01:33:01;5.80;;;3.00;;
59649;SDS011;46162;57.568;25.814;2022-12-08T01:35:30;6.37;;;3.10;;
59649;SDS011;46162;57.568;25.814;2022-12-08T01:37:59;5.00;;;2.78;;
59649;SDS011;46162;57.568;25.814;2022-12-08T01:40:27;5.85;;;3.17;;
59649;SDS011;46162;57.568;25.814;2022-12-08T01:42:56;5.07;;;2.85;;
59649;SDS011;46162;57.568;25.814;2022-12-08T01:45:25;5.10;;;2.67;;
59649;SDS011;46162;57.568;25.814;2022-12-08T01:47:56;4.82;;;2.45;;
59649;SDS011;46162;57.568;25.814;2022-12-08T01:50:31;5.72;;;2.90;;
59649;SDS011;46162;57.568;25.814;2022-12-08T01:53:02;5.47;;;2.80;;
59649;SDS011;46162;57.568;25.814;2022-12-08T01:55:38;5.90;;;2.97;;
59649;SDS011;46162;57.568;25.814;2022-12-08T01:58:10;6.10;;;3.22;;
59649;SDS011;46162;57.568;25.814;2022-12-08T02:00:43;5.82;;;3.05;;
59649;SDS011;46162;57.568;25.814;2022-12-08T02:03:14;6.47;;;3.10;;
59649;SDS011;46162;57.568;25.814;2022-12-08T02:05:48;5.88;;;3.50;;
59649;SDS011;46162;57.568;25.814;2022-12-08T02:08:18;5.60;;;3.70;;
59649;SDS011;46162;57.568;25.814;2022-12-08T02:10:50;5.55;;;3.33;;
59649;SDS011;46162;57.568;25.814;2022-12-08T02:13:19;5.60;;;3.50;;
59649;SDS011;46162;57.568;25.814;2022-12-08T02:15:53;5.75;;;3.60;;
59649;SDS011;46162;57.568;25.814;2022-12-08T02:18:45;7.18;;;3.95;;
59649;SDS011;46162;57.568;25.814;2022-12-08T02:21:48;4.85;;;3.35;;
59649;SDS011;46162;57.568;25.814;2022-12-08T02:24:25;6.32;;;3.92;;
59649;SDS011;46162;57.568;25.814;2022-12-08T02:27:10;7.32;;;4.43;;
59649;SDS011;46162;57.568;25.814;2022-12-08T02:30:04;7.07;;;3.75;;
59649;SDS011;46162;57.568;25.814;2022-12-08T02:32:51;5.88;;;3.13;;
59649;SDS011;46162;57.568;25.814;2022-12-08T02:35:41;6.28;;;4.32;;
59649;SDS011;46162;57.568;25.814;2022-12-08T02:38:17;5.97;;;3.58;;
59649;SDS011;46162;57.568;25.814;2022-12-08T02:40:58;6.65;;;4.00;;
59649;SDS011;46162;57.568;25.814;2022-12-08T02:43:37;5.43;;;3.53;;
59649;SDS011;46162;57.568;25.814;2022-12-08T02:46:10;5.53;;;3.42;;
59649;SDS011;46162;57.568;25.814;2022-12-08T02:48:43;6.32;;;3.10;;
59649;SDS011;46162;57.568;25.814;2022-12-08T02:51:14;6.03;;;3.65;;
59649;SDS011;46162;57.568;25.814;2022-12-08T02:53:43;5.63;;;3.43;;
59649;SDS011;46162;57.568;25.814;2022-12-08T02:56:15;6.20;;;3.53;;
59649;SDS011;46162;57.568;25.814;2022-12-08T02:59:04;6.60;;;4.32;;
59649;SDS011;46162;57.568;25.814;2022-12-08T03:01:50;6.18;;;3.60;;
59649;SDS011;46162;57.568;25.814;2022-12-08T03:04:31;6.00;;;3.40;;
59649;SDS011;46162;57.568;25.814;2022-12-08T03:07:13;6.35;;;3.45;;
59649;SDS011;46162;57.568;25.814;2022-12-08T03:09:50;7.32;;;4.53;;
59649;SDS011;46162;57.568;25.814;2022-12-08T03:12:24;7.95;;;3.70;;
59649;SDS011;46162;57.568;25.814;2022-12-08T03:14:58;6.22;;;3.50;;
59649;SDS011;46162;57.568;25.814;2022-12-08T03:17:32;5.25;;;3.53;;
59649;SDS011;46162;57.568;25.814;2022-12-08T03:20:02;6.50;;;3.92;;
59649;SDS011;46162;57.568;25.814;2022-12-08T03:22:38;6.00;;;3.78;;
59649;SDS011;46162;57.568;25.814;2022-12-08T03:25:09;6.00;;;3.83;;
59649;SDS011;46162;57.568;25.814;2022-12-08T03:27:42;6.55;;;3.67;;
59649;SDS011;46162;57.568;25.814;2022-12-08T03:30:11;5.72;;;3.65;;
59649;SDS011;46162;57.568;25.814;2022-12-08T03:32:41;6.05;;;3.85;;
59649;SDS011;46162;57.568;25.814;2022-12-08T03:35:15;6.38;;;3.63;;
59649;SDS011;46162;57.568;25.814;2022-12-08T03:37:49;6.65;;;3.75;;
59649;SDS011;46162;57.568;25.814;2022-12-08T03:40:19;5.55;;;3.53;;
59649;SDS011;46162;57.568;25.814;2022-12-08T03:42:48;7.87;;;4.23;;
59649;SDS011;46162;57.568;25.814;2022-12-08T03:45:16;6.13;;;3.92;;
59649;SDS011;46162;57.568;25.814;2022-12-08T03:47:45;5.93;;;3.90;;
59649;SDS011;46162;57.568;25.814;2022-12-08T03:50:14;5.95;;;4.15;;
59649;SDS011;46162;57.568;25.814;2022-12-08T03:52:43;6.18;;;4.15;;
59649;SDS011;46162;57.568;25.814;2022-12-08T03:55:13;6.97;;;4.45;;
59649;SDS011;46162;57.568;25.814;2022-12-08T03:57:42;6.53;;;4.47;;
59649;SDS011;46162;57.568;25.814;2022-12-08T04:00:12;6.25;;;4.07;;
59649;SDS011;46162;57.568;25.814;2022-12-08T04:02:43;7.82;;;4.30;;
59649;SDS011;46162;57.568;25.814;2022-12-08T04:05:12;8.23;;;4.43;;
59649;SDS011;46162;57.568;25.814;2022-12-08T04:07:41;7.20;;;4.18;;
59649;SDS011;46162;57.568;25.814;2022-12-08T04:10:10;7.07;;;4.80;;
59649;SDS011;46162;57.568;25.814;2022-12-08T04:12:40;8.38;;;5.55;;
59649;SDS011;46162;57.568;25.814;2022-12-08T04:15:09;7.85;;;5.50;;
59649;SDS011;46162;57.568;25.814;2022-12-08T04:17:38;7.50;;;5.15;;
59649;SDS011;46162;57.568;25.814;2022-12-08T04:20:08;8.35;;;5.55;;
59649;SDS011;46162;57.568;25.814;2022-12-08T04:22:37;8.25;;;5.78;;
59649;SDS011;46162;57.568;25.814;2022-12-08T04:25:06;7.32;;;5.22;;
59649;SDS011;46162;57.568;25.814;2022-12-08T04:27:35;8.98;;;6.85;;
59649;SDS011;46162;57.568;25.814;2022-12-08T04:30:07;12.75;;;7.97;;
59649;SDS011;46162;57.568;25.814;2022-12-08T04:32:37;9.48;;;6.90;;
59649;SDS011;46162;57.568;25.814;2022-12-08T04:35:12;9.85;;;7.15;;
59649;SDS011;46162;57.568;25.814;2022-12-08T04:37:41;9.82;;;7.53;;
59649;SDS011;46162;57.568;25.814;2022-12-08T04:40:13;10.48;;;7.18;;
59649;SDS011;46162;57.568;25.814;2022-12-08T04:42:42;9.70;;;6.72;;
59649;SDS011;46162;57.568;25.814;2022-12-08T04:45:13;9.07;;;6.47;;
59649;SDS011;46162;57.568;25.814;2022-12-08T04:47:43;8.80;;;6.47;;
59649;SDS011;46162;57.568;25.814;2022-12-08T04:50:12;8.25;;;5.47;;
59649;SDS011;46162;57.568;25.814;2022-12-08T04:52:42;8.73;;;5.00;;
59649;SDS011;46162;57.568;25.814;2022-12-08T04:55:11;7.75;;;4.88;;
59649;SDS011;46162;57.568;25.814;2022-12-08T04:57:39;7.50;;;4.72;;
59649;SDS011;46162;57.568;25.814;2022-12-08T05:00:11;8.00;;;5.05;;
59649;SDS011;46162;57.568;25.814;2022-12-08T05:02:42;5.90;;;4.30;;
59649;SDS011;46162;57.568;25.814;2022-12-08T05:05:11;7.60;;;4.50;;
59649;SDS011;46162;57.568;25.814;2022-12-08T05:07:39;7.82;;;4.80;;
59649;SDS011;46162;57.568;25.814;2022-12-08T05:10:09;7.25;;;4.47;;
59649;SDS011;46162;57.568;25.814;2022-12-08T05:12:38;7.72;;;4.68;;
59649;SDS011;46162;57.568;25.814;2022-12-08T05:15:06;7.00;;;4.88;;
59649;SDS011;46162;57.568;25.814;2022-12-08T05:17:38;7.15;;;4.88;;
59649;SDS011;46162;57.568;25.814;2022-12-08T05:20:08;7.72;;;4.38;;
59649;SDS011;46162;57.568;25.814;2022-12-08T05:22:37;7.15;;;4.90;;
59649;SDS011;46162;57.568;25.814;2022-12-08T05:25:09;6.95;;;4.75;;
59649;SDS011;46162;57.568;25.814;2022-12-08T05:27:38;6.95;;;4.97;;
59649;SDS011;46162;57.568;25.814;2022-12-08T05:30:09;7.03;;;5.28;;
59649;SDS011;46162;57.568;25.814;2022-12-08T05:32:40;6.70;;;4.50;;
59649;SDS011;46162;57.568;25.814;2022-12-08T05:35:09;6.93;;;4.60;;
59649;SDS011;46162;57.568;25.814;2022-12-08T05:37:40;6.72;;;4.60;;
59649;SDS011;46162;57.568;25.814;2022-12-08T05:40:09;7.45;;;4.40;;
59649;SDS011;46162;57.568;25.814;2022-12-08T05:42:38;7.05;;;4.70;;
59649;SDS011;46162;57.568;25.814;2022-12-08T05:45:08;7.97;;;5.13;;
59649;SDS011;46162;57.568;25.814;2022-12-08T05:47:37;7.57;;;4.90;;
59649;SDS011;46162;57.568;25.814;2022-12-08T05:50:08;7.53;;;5.22;;
59649;SDS011;46162;57.568;25.814;2022-12-08T05:52:38;7.35;;;5.43;;
59649;SDS011;46162;57.568;25.814;2022-12-08T05:55:07;6.65;;;4.78;;
59649;SDS011;46162;57.568;25.814;2022-12-08T05:57:37;6.32;;;4.07;;
59649;SDS011;46162;57.568;25.814;2022-12-08T06:00:06;7.65;;;3.95;;
59649;SDS011;46162;57.568;25.814;2022-12-08T06:02:40;7.25;;;4.07;;
59649;SDS011;46162;57.568;25.814;2022-12-08T06:05:09;5.43;;;3.53;;
59649;SDS011;46162;57.568;25.814;2022-12-08T06:07:38;6.47;;;3.85;;
59649;SDS011;46162;57.568;25.814;2022-12-08T06:10:07;5.43;;;3.58;;
59649;SDS011;46162;57.568;25.814;2022-12-08T06:12:37;5.85;;;3.47;;
59649;SDS011;46162;57.568;25.814;2022-12-08T06:15:06;5.88;;;4.13;;
59649;SDS011;46162;57.568;25.814;2022-12-08T06:17:35;7.10;;;4.10;;
59649;SDS011;46162;57.568;25.814;2022-12-08T06:20:06;7.72;;;4.63;;
59649;SDS011;46162;57.568;25.814;2022-12-08T06:22:36;6.32;;;4.10;;
59649;SDS011;46162;57.568;25.814;2022-12-08T06:25:05;5.88;;;3.05;;
59649;SDS011;46162;57.568;25.814;2022-12-08T06:27:36;5.72;;;3.47;;
59649;SDS011;46162;57.568;25.814;2022-12-08T06:30:05;6.38;;;4.10;;
59649;SDS011;46162;57.568;25.814;2022-12-08T06:32:35;6.20;;;3.78;;
59649;SDS011;46162;57.568;25.814;2022-12-08T06:35:06;7.07;;;4.25;;
59649;SDS011;46162;57.568;25.814;2022-12-08T06:37:35;4.93;;;3.17;;
59649;SDS011;46162;57.568;25.814;2022-12-08T06:40:05;7.45;;;3.95;;
59649;SDS011;46162;57.568;25.814;2022-12-08T06:42:36;6.03;;;3.60;;
59649;SDS011;46162;57.568;25.814;2022-12-08T06:45:16;5.97;;;3.88;;
59649;SDS011;46162;57.568;25.814;2022-12-08T06:47:45;5.50;;;3.72;;
59649;SDS011;46162;57.568;25.814;2022-12-08T06:50:15;6.95;;;4.15;;
59649;SDS011;46162;57.568;25.814;2022-12-08T06:52:45;6.28;;;3.85;;
59649;SDS011;46162;57.568;25.814;2022-12-08T06:55:28;5.82;;;3.47;;
59649;SDS011;46162;57.568;25.814;2022-12-08T06:58:17;6.75;;;3.55;;
59649;SDS011;46162;57.568;25.814;2022-12-08T07:00:47;6.32;;;4.28;;
59649;SDS011;46162;57.568;25.814;2022-12-08T07:03:15;6.35;;;3.50;;
59649;SDS011;46162;57.568;25.814;2022-12-08T07:05:46;5.50;;;3.83;;
59649;SDS011;46162;57.568;25.814;2022-12-08T07:10:44;5.95;;;3.75;;
59649;SDS011;46162;57.568;25.814;2022-12-08T07:13:13;6.13;;;3.67;;
59649;SDS011;46162;57.568;25.814;2022-12-08T07:15:41;6.18;;;3.65;;
59649;SDS011;46162;57.568;25.814;2022-12-08T07:18:10;5.63;;;3.55;;
59649;SDS011;46162;57.568;25.814;2022-12-08T07:20:39;7.30;;;4.05;;
59649;SDS011;46162;57.568;25.814;2022-12-08T07:23:09;6.63;;;4.10;;
59649;SDS011;46162;57.568;25.814;2022-12-08T07:25:38;5.82;;;3.35;;
59649;SDS011;46162;57.568;25.814;2022-12-08T07:28:08;6.18;;;3.75;;
59649;SDS011;46162;57.568;25.814;2022-12-08T07:30:42;6.75;;;3.67;;
59649;SDS011;46162;57.568;25.814;2022-12-08T07:33:11;5.97;;;3.75;;
59649;SDS011;46162;57.568;25.814;2022-12-08T07:35:40;6.40;;;3.60;;
59649;SDS011;46162;57.568;25.814;2022-12-08T07:38:16;5.72;;;3.58;;
59649;SDS011;46162;57.568;25.814;2022-12-08T07:40:45;6.18;;;3.38;;
59649;SDS011;46162;57.568;25.814;2022-12-08T07:43:14;4.90;;;2.92;;
59649;SDS011;46162;57.568;25.814;2022-12-08T07:45:44;5.65;;;3.22;;
59649;SDS011;46162;57.568;25.814;2022-12-08T07:48:13;5.10;;;2.95;;
59649;SDS011;46162;57.568;25.814;2022-12-08T07:50:42;5.85;;;3.28;;
59649;SDS011;46162;57.568;25.814;2022-12-08T07:53:11;5.55;;;2.72;;
59649;SDS011;46162;57.568;25.814;2022-12-08T07:55:42;5.47;;;2.97;;
59649;SDS011;46162;57.568;25.814;2022-12-08T07:58:11;5.70;;;3.40;;
59649;SDS011;46162;57.568;25.814;2022-12-08T08:00:40;5.25;;;2.97;;
59649;SDS011;46162;57.568;25.814;2022-12-08T08:03:09;5.32;;;2.80;;
59649;SDS011;46162;57.568;25.814;2022-12-08T08:05:39;6.57;;;3.60;;
59649;SDS011;46162;57.568;25.814;2022-12-08T08:08:08;5.18;;;3.10;;
59649;SDS011;46162;57.568;25.814;2022-12-08T08:10:36;5.10;;;3.03;;
59649;SDS011;46162;57.568;25.814;2022-12-08T08:13:07;5.22;;;3.05;;
59649;SDS011;46162;57.568;25.814;2022-12-08T08:15:36;5.25;;;2.63;;
59649;SDS011;46162;57.568;25.814;2022-12-08T08:18:05;4.60;;;2.58;;
59649;SDS011;46162;57.568;25.814;2022-12-08T08:20:35;6.15;;;2.50;;
59649;SDS011;46162;57.568;25.814;2022-12-08T08:23:05;3.97;;;2.35;;
59649;SDS011;46162;57.568;25.814;2022-12-08T08:25:34;4.65;;;2.42;;
59649;SDS011;46162;57.568;25.814;2022-12-08T08:28:03;4.90;;;2.75;;
59649;SDS011;46162;57.568;25.814;2022-12-08T08:30:33;4.10;;;2.13;;
59649;SDS011;46162;57.568;25.814;2022-12-08T08:33:02;4.50;;;2.42;;
59649;SDS011;46162;57.568;25.814;2022-12-08T08:35:31;4.72;;;2.65;;
59649;SDS011;46162;57.568;25.814;2022-12-08T08:38:01;5.05;;;2.20;;
59649;SDS011;46162;57.568;25.814;2022-12-08T08:40:30;4.95;;;2.30;;
59649;SDS011;46162;57.568;25.814;2022-12-08T08:43:00;4.60;;;2.05;;
59649;SDS011;46162;57.568;25.814;2022-12-08T08:45:29;4.07;;;1.95;;
59649;SDS011;46162;57.568;25.814;2022-12-08T08:48:00;4.68;;;2.60;;
59649;SDS011;46162;57.568;25.814;2022-12-08T08:50:29;4.90;;;2.35;;
59649;SDS011;46162;57.568;25.814;2022-12-08T08:53:03;3.92;;;1.90;;
59649;SDS011;46162;57.568;25.814;2022-12-08T08:55:31;3.70;;;1.70;;
59649;SDS011;46162;57.568;25.814;2022-12-08T08:58:00;4.32;;;1.60;;
59649;SDS011;46162;57.568;25.814;2022-12-08T09:00:29;3.67;;;1.80;;
59649;SDS011;46162;57.568;25.814;2022-12-08T09:02:58;3.95;;;1.75;;
59649;SDS011;46162;57.568;25.814;2022-12-08T09:05:28;3.73;;;2.03;;
59649;SDS011;46162;57.568;25.814;2022-12-08T09:07:56;4.10;;;1.77;;
59649;SDS011;46162;57.568;25.814;2022-12-08T09:10:26;4.30;;;1.70;;
59649;SDS011;46162;57.568;25.814;2022-12-08T09:12:55;3.60;;;1.63;;
59649;SDS011;46162;57.568;25.814;2022-12-08T09:15:24;4.85;;;1.80;;
59649;SDS011;46162;57.568;25.814;2022-12-08T09:17:52;3.88;;;2.05;;
59649;SDS011;46162;57.568;25.814;2022-12-08T09:20:22;3.28;;;1.55;;
59649;SDS011;46162;57.568;25.814;2022-12-08T09:22:52;3.95;;;1.83;;
59649;SDS011;46162;57.568;25.814;2022-12-08T09:25:21;4.38;;;1.77;;
59649;SDS011;46162;57.568;25.814;2022-12-08T09:27:49;3.83;;;1.63;;
59649;SDS011;46162;57.568;25.814;2022-12-08T09:30:18;2.63;;;1.13;;
59649;SDS011;46162;57.568;25.814;2022-12-08T09:32:47;3.10;;;1.50;;
59649;SDS011;46162;57.568;25.814;2022-12-08T09:35:15;3.58;;;1.65;;
59649;SDS011;46162;57.568;25.814;2022-12-08T09:37:46;3.25;;;1.25;;
59649;SDS011;46162;57.568;25.814;2022-12-08T09:40:16;3.67;;;1.13;;
59649;SDS011;46162;57.568;25.814;2022-12-08T09:42:49;2.20;;;0.90;;
59649;SDS011;46162;57.568;25.814;2022-12-08T09:45:23;2.70;;;1.00;;
59649;SDS011;46162;57.568;25.814;2022-12-08T09:47:57;2.42;;;0.70;;
59649;SDS011;46162;57.568;25.814;2022-12-08T09:50:31;2.95;;;0.80;;
59649;SDS011;46162;57.568;25.814;2022-12-08T09:53:08;2.28;;;0.70;;
59649;SDS011;46162;57.568;25.814;2022-12-08T09:55:45;2.13;;;0.90;;
59649;SDS011;46162;57.568;25.814;2022-12-08T09:58:20;1.67;;;0.57;;
59649;SDS011;46162;57.568;25.814;2022-12-08T10:00:55;2.70;;;1.05;;
59649;SDS011;46162;57.568;25.814;2022-12-08T10:03:26;3.00;;;1.05;;
59649;SDS011;46162;57.568;25.814;2022-12-08T10:05:59;2.90;;;1.13;;
59649;SDS011;46162;57.568;25.814;2022-12-08T10:08:38;2.75;;;1.17;;
59649;SDS011;46162;57.568;25.814;2022-12-08T10:11:15;2.53;;;1.17;;
59649;SDS011;46162;57.568;25.814;2022-12-08T10:13:52;2.45;;;1.00;;
59649;SDS011;46162;57.568;25.814;2022-12-08T10:16:32;2.10;;;0.70;;
59649;SDS011;46162;57.568;25.814;2022-12-08T10:19:12;2.10;;;0.70;;
59649;SDS011;46162;57.568;25.814;2022-12-08T10:21:45;2.47;;;0.98;;
59649;SDS011;46162;57.568;25.814;2022-12-08T10:24:17;2.63;;;1.00;;
59649;SDS011;46162;57.568;25.814;2022-12-08T10:26:54;2.30;;;0.77;;
59649;SDS011;46162;57.568;25.814;2022-12-08T10:29:23;2.42;;;0.82;;
59649;SDS011;46162;57.568;25.814;2022-12-08T10:31:54;2.55;;;0.80;;
59649;SDS011;46162;57.568;25.814;2022-12-08T10:34:26;2.58;;;0.77;;
59649;SDS011;46162;57.568;25.814;2022-12-08T10:36:55;2.20;;;0.90;;
59649;SDS011;46162;57.568;25.814;2022-12-08T10:39:38;2.92;;;0.85;;
59649;SDS011;46162;57.568;25.814;2022-12-08T10:42:17;2.83;;;1.40;;
59649;SDS011;46162;57.568;25.814;2022-12-08T10:44:52;2.80;;;0.90;;
59649;SDS011;46162;57.568;25.814;2022-12-08T10:47:25;3.28;;;1.55;;
59649;SDS011;46162;57.568;25.814;2022-12-08T10:50:17;3.42;;;1.77;;
59649;SDS011;46162;57.568;25.814;2022-12-08T10:52:52;3.50;;;1.80;;
59649;SDS011;46162;57.568;25.814;2022-12-08T10:55:44;4.47;;;1.95;;
59649;SDS011;46162;57.568;25.814;2022-12-08T10:58:23;3.45;;;1.77;;
59649;SDS011;46162;57.568;25.814;2022-12-08T11:00:54;3.30;;;1.85;;
59649;SDS011;46162;57.568;25.814;2022-12-08T11:03:27;3.53;;;1.75;;
59649;SDS011;46162;57.568;25.814;2022-12-08T11:06:22;2.85;;;1.40;;
59649;SDS011;46162;57.568;25.814;2022-12-08T11:08:58;3.75;;;1.70;;
59649;SDS011;46162;57.568;25.814;2022-12-08T11:11:37;3.58;;;2.33;;
59649;SDS011;46162;57.568;25.814;2022-12-08T11:14:14;4.10;;;1.88;;
59649;SDS011;46162;57.568;25.814;2022-12-08T11:16:46;3.65;;;1.70;;
59649;SDS011;46162;57.568;25.814;2022-12-08T11:19:16;4.07;;;2.25;;
59649;SDS011;46162;57.568;25.814;2022-12-08T11:21:46;5.10;;;2.50;;
59649;SDS011;46162;57.568;25.814;2022-12-08T11:24:19;3.80;;;1.90;;
59649;SDS011;46162;57.568;25.814;2022-12-08T11:26:53;9.48;;;4.22;;
59649;SDS011;46162;57.568;25.814;2022-12-08T11:29:26;3.58;;;1.45;;
59649;SDS011;46162;57.568;25.814;2022-12-08T11:31:59;5.28;;;3.13;;
59649;SDS011;46162;57.568;25.814;2022-12-08T11:34:33;4.78;;;1.73;;
59649;SDS011;46162;57.568;25.814;2022-12-08T11:37:09;3.10;;;1.63;;
59649;SDS011;46162;57.568;25.814;2022-12-08T11:39:45;3.00;;;1.50;;
59649;SDS011;46162;57.568;25.814;2022-12-08T11:48:05;3.72;;;1.33;;
59649;SDS011;46162;57.568;25.814;2022-12-08T11:50:54;3.90;;;1.70;;
59649;SDS011;46162;57.568;25.814;2022-12-08T11:53:29;4.30;;;1.55;;
59649;SDS011;46162;57.568;25.814;2022-12-08T11:56:20;3.55;;;1.60;;
59649;SDS011;46162;57.568;25.814;2022-12-08T11:58:58;6.47;;;1.73;;
59649;SDS011;46162;57.568;25.814;2022-12-08T12:01:35;4.47;;;1.67;;
59649;SDS011;46162;57.568;25.814;2022-12-08T12:04:10;2.95;;;1.30;;
59649;SDS011;46162;57.568;25.814;2022-12-08T12:10:02;4.43;;;1.70;;
59649;SDS011;46162;57.568;25.814;2022-12-08T12:13:01;3.95;;;1.60;;
59649;SDS011;46162;57.568;25.814;2022-12-08T12:15:50;4.75;;;1.63;;
59649;SDS011;46162;57.568;25.814;2022-12-08T12:18:59;4.70;;;2.03;;
59649;SDS011;46162;57.568;25.814;2022-12-08T12:21:31;3.65;;;1.60;;
59649;SDS011;46162;57.568;25.814;2022-12-08T12:24:03;4.65;;;1.55;;
59649;SDS011;46162;57.568;25.814;2022-12-08T12:26:36;4.10;;;1.27;;
59649;SDS011;46162;57.568;25.814;2022-12-08T12:29:17;3.28;;;1.55;;
59649;SDS011;46162;57.568;25.814;2022-12-08T12:31:54;4.30;;;1.17;;
59649;SDS011;46162;57.568;25.814;2022-12-08T12:34:26;3.67;;;1.33;;
59649;SDS011;46162;57.568;25.814;2022-12-08T12:37:02;3.33;;;0.80;;
59649;SDS011;46162;57.568;25.814;2022-12-08T12:39:48;2.95;;;0.93;;
59649;SDS011;46162;57.568;25.814;2022-12-08T12:50:56;2.83;;;0.60;;
59649;SDS011;46162;57.568;25.814;2022-12-08T12:53:46;3.05;;;0.73;;
59649;SDS011;46162;57.568;25.814;2022-12-08T13:02:18;2.58;;;0.65;;
59649;SDS011;46162;57.568;25.814;2022-12-08T13:04:53;2.47;;;0.52;;
59649;SDS011;46162;57.568;25.814;2022-12-08T13:07:27;2.08;;;0.47;;
59649;SDS011;46162;57.568;25.814;2022-12-08T13:09:59;2.83;;;0.70;;
59649;SDS011;46162;57.568;25.814;2022-12-08T13:12:38;2.63;;;0.60;;
59649;SDS011;46162;57.568;25.814;2022-12-08T13:15:15;2.63;;;0.60;;
59649;SDS011;46162;57.568;25.814;2022-12-08T13:18:00;2.78;;;0.50;;
59649;SDS011;46162;57.568;25.814;2022-12-08T13:20:56;2.10;;;0.40;;
59649;SDS011;46162;57.568;25.814;2022-12-08T13:26:42;2.60;;;0.75;;
59649;SDS011;46162;57.568;25.814;2022-12-08T13:29:20;3.08;;;0.70;;
59649;SDS011;46162;57.568;25.814;2022-12-08T13:31:53;2.78;;;0.85;;
59649;SDS011;46162;57.568;25.814;2022-12-08T13:34:27;3.60;;;0.90;;
59649;SDS011;46162;57.568;25.814;2022-12-08T13:37:07;2.38;;;0.55;;
59649;SDS011;46162;57.568;25.814;2022-12-08T13:39:48;2.80;;;0.60;;
59649;SDS011;46162;57.568;25.814;2022-12-08T13:42:28;4.18;;;0.63;;
59649;SDS011;46162;57.568;25.814;2022-12-08T13:45:28;2.58;;;0.85;;
59649;SDS011;46162;57.568;25.814;2022-12-08T13:48:24;3.22;;;0.88;;
59649;SDS011;46162;57.568;25.814;2022-12-08T13:51:46;3.55;;;0.65;;
59649;SDS011;46162;57.568;25.814;2022-12-08T13:54:40;4.72;;;0.80;;
59649;SDS011;46162;57.568;25.814;2022-12-08T13:57:32;3.35;;;0.60;;
59649;SDS011;46162;57.568;25.814;2022-12-08T14:00:04;2.78;;;0.73;;
59649;SDS011;46162;57.568;25.814;2022-12-08T14:02:48;3.00;;;0.68;;
59649;SDS011;46162;57.568;25.814;2022-12-08T14:05:44;2.17;;;0.47;;
59649;SDS011;46162;57.568;25.814;2022-12-08T14:08:36;2.25;;;0.40;;
59649;SDS011;46162;57.568;25.814;2022-12-08T14:11:31;2.72;;;0.57;;
59649;SDS011;46162;57.568;25.814;2022-12-08T14:14:06;2.75;;;0.70;;
59649;SDS011;46162;57.568;25.814;2022-12-08T14:17:04;3.00;;;0.90;;
59649;SDS011;46162;57.568;25.814;2022-12-08T14:19:34;3.90;;;0.88;;
59649;SDS011;46162;57.568;25.814;2022-12-08T14:22:09;4.57;;;1.27;;
59649;SDS011;46162;57.568;25.814;2022-12-08T14:27:19;4.47;;;1.50;;
59649;SDS011;46162;57.568;25.814;2022-12-08T14:29:52;3.90;;;1.30;;
59649;SDS011;46162;57.568;25.814;2022-12-08T14:32:43;4.38;;;1.45;;
59649;SDS011;46162;57.568;25.814;2022-12-08T14:35:27;4.35;;;1.88;;
59649;SDS011;46162;57.568;25.814;2022-12-08T14:37:57;3.65;;;1.40;;
59649;SDS011;46162;57.568;25.814;2022-12-08T14:40:47;4.47;;;1.50;;
59649;SDS011;46162;57.568;25.814;2022-12-08T14:43:38;4.13;;;1.73;;
59649;SDS011;46162;57.568;25.814;2022-12-08T14:46:22;3.70;;;1.67;;
59649;SDS011;46162;57.568;25.814;2022-12-08T14:48:51;3.75;;;1.33;;
59649;SDS011;46162;57.568;25.814;2022-12-08T14:51:22;5.75;;;1.85;;
59649;SDS011;46162;57.568;25.814;2022-12-08T14:53:56;3.40;;;1.25;;
59649;SDS011;46162;57.568;25.814;2022-12-08T14:56:37;4.80;;;1.67;;
59649;SDS011;46162;57.568;25.814;2022-12-08T14:59:18;6.47;;;1.55;;
59649;SDS011;46162;57.568;25.814;2022-12-08T15:01:51;4.78;;;1.88;;
59649;SDS011;46162;57.568;25.814;2022-12-08T15:05:09;4.13;;;1.23;;
59649;SDS011;46162;57.568;25.814;2022-12-08T15:08:09;2.95;;;1.10;;
59649;SDS011;46162;57.568;25.814;2022-12-08T15:10:39;3.67;;;1.30;;
59649;SDS011;46162;57.568;25.814;2022-12-08T15:13:21;4.82;;;1.50;;
59649;SDS011;46162;57.568;25.814;2022-12-08T15:15:51;4.13;;;1.52;;
59649;SDS011;46162;57.568;25.814;2022-12-08T15:18:27;4.75;;;1.30;;
59649;SDS011;46162;57.568;25.814;2022-12-08T15:21:10;4.60;;;1.27;;
59649;SDS011;46162;57.568;25.814;2022-12-08T15:23:40;3.80;;;1.52;;
59649;SDS011;46162;57.568;25.814;2022-12-08T15:26:17;4.28;;;1.17;;
59649;SDS011;46162;57.568;25.814;2022-12-08T15:28:48;4.45;;;1.20;;
59649;SDS011;46162;57.568;25.814;2022-12-08T15:31:21;3.08;;;1.33;;
59649;SDS011;46162;57.568;25.814;2022-12-08T15:33:51;3.55;;;1.35;;
59649;SDS011;46162;57.568;25.814;2022-12-08T15:36:27;3.90;;;1.48;;
59649;SDS011;46162;57.568;25.814;2022-12-08T15:38:56;4.60;;;1.15;;
59649;SDS011;46162;57.568;25.814;2022-12-08T15:41:24;3.17;;;0.77;;
59649;SDS011;46162;57.568;25.814;2022-12-08T15:43:53;3.03;;;1.10;;